createdAt,value
2023-02-05T00:00:19.250Z,99668.63
2023-02-05T00:03:06.830Z,99674.63
2023-02-05T00:05:34.668Z,99672.06
2023-02-05T00:08:02.662Z,99680.59
2023-02-05T00:10:29.983Z,99685.75
2023-02-05T00:12:57.630Z,99681.44
2023-02-05T00:15:25.018Z,99677.19
2023-02-05T00:17:52.599Z,99676.34
2023-02-05T00:20:19.962Z,99676.34
2023-02-05T00:22:47.540Z,99688.31
2023-02-05T00:25:14.880Z,99690.00
2023-02-05T00:27:42.514Z,99693.47
2023-02-05T00:30:10.685Z,99690.03
2023-02-05T00:32:38.277Z,99689.16
2023-02-05T00:35:06.055Z,99690.88
2023-02-05T00:37:33.669Z,99690.91
2023-02-05T00:40:01.052Z,99689.16
2023-02-05T00:42:28.693Z,99684.00
2023-02-05T00:44:56.046Z,99690.00
2023-02-05T00:47:23.739Z,99687.44
2023-02-05T00:49:51.024Z,99686.59
2023-02-05T00:52:18.879Z,99697.72
2023-02-05T00:54:46.318Z,99693.41
2023-02-05T00:57:13.923Z,99696.84
2023-02-05T00:59:41.181Z,99695.13
2023-02-05T01:02:08.763Z,99695.97
2023-02-05T01:04:36.024Z,99692.56
2023-02-05T01:07:03.620Z,99691.69
2023-02-05T01:09:30.966Z,99683.97
2023-02-05T01:12:00.047Z,99689.94
2023-02-05T01:14:27.331Z,99686.50
2023-02-05T01:16:54.985Z,99686.50
2023-02-05T01:19:22.256Z,99686.53
2023-02-05T01:21:49.862Z,99693.38
2023-02-05T01:24:17.102Z,99692.53
2023-02-05T01:26:44.876Z,99695.97
2023-02-05T01:29:12.163Z,99696.81
2023-02-05T01:31:39.833Z,99700.25
2023-02-05T01:34:07.149Z,99697.66
2023-02-05T01:36:34.834Z,99695.94
2023-02-05T01:39:02.147Z,99695.09
2023-02-05T01:41:29.920Z,99695.09
2023-02-05T01:44:18.838Z,99690.81
2023-02-05T01:46:48.437Z,99695.94
2023-02-05T01:49:35.481Z,99694.22
2023-02-05T01:52:16.054Z,99696.00
2023-02-05T01:54:49.250Z,99699.41
2023-02-05T01:57:26.144Z,99696.81
2023-02-05T01:59:53.537Z,99694.25
2023-02-05T02:02:21.157Z,99699.41
2023-02-05T02:04:55.294Z,99701.09
2023-02-05T02:07:25.034Z,99689.97
2023-02-05T02:09:54.481Z,99701.97
2023-02-05T02:12:28.381Z,99702.81
2023-02-05T02:15:03.622Z,99708.81
2023-02-05T02:17:39.285Z,99701.94
2023-02-05T02:20:22.513Z,99707.94
2023-02-05T02:22:56.230Z,99701.94
2023-02-05T02:26:01.298Z,99706.25
2023-02-05T02:28:50.669Z,99697.69
2023-02-05T02:31:40.145Z,99702.78
2023-02-05T02:34:45.123Z,99710.50
2023-02-05T02:37:44.130Z,99713.09
2023-02-05T02:40:52.325Z,99704.53
2023-02-05T02:43:27.639Z,99704.56
2023-02-05T02:46:17.198Z,99707.97
2023-02-05T02:48:48.032Z,99707.16
2023-02-05T02:51:20.599Z,99705.44
2023-02-05T02:53:54.471Z,99709.75
2023-02-05T02:56:27.842Z,99714.88
2023-02-05T02:59:03.611Z,99714.88
2023-02-05T03:01:35.131Z,99716.56
2023-02-05T03:04:17.671Z,99711.47
2023-02-05T03:06:51.968Z,99714.00
2023-02-05T03:09:29.274Z,99714.88
2023-02-05T03:11:56.851Z,99720.00
2023-02-05T03:14:24.397Z,99702.03
2023-02-05T03:16:53.788Z,99710.56
2023-02-05T03:19:21.243Z,99703.72
2023-02-05T03:21:56.667Z,99717.41
2023-02-05T03:24:24.966Z,99708.88
2023-02-05T03:26:52.672Z,99713.16
2023-02-05T03:29:33.047Z,99718.28
2023-02-05T03:32:43.732Z,99711.44
2023-02-05T03:35:24.791Z,99717.44
2023-02-05T03:38:46.795Z,99716.56
2023-02-05T03:41:53.428Z,99714.03
2023-02-05T03:44:46.589Z,99708.03
2023-02-05T03:47:58.238Z,99714.00
2023-02-05T03:50:50.608Z,99710.53
2023-02-05T03:53:27.956Z,99714.78
2023-02-05T03:56:13.843Z,99719.03
2023-02-05T03:58:48.216Z,99727.59
2023-02-05T04:01:17.163Z,99721.59
2023-02-05T04:03:44.989Z,99725.00
2023-02-05T04:06:12.947Z,99719.88
2023-02-05T04:08:40.483Z,99728.41
2023-02-05T04:11:08.104Z,99735.25
2023-02-05T04:13:35.406Z,99729.28
2023-02-05T04:16:03.015Z,99730.09
2023-02-05T04:18:30.399Z,99730.94
2023-02-05T04:20:59.174Z,99737.78
2023-02-05T04:23:26.585Z,99732.66
2023-02-05T04:25:55.280Z,99727.53
2023-02-05T04:28:22.699Z,99726.69
2023-02-05T04:30:50.351Z,99728.38
2023-02-05T04:33:18.706Z,99740.31
2023-02-05T04:35:46.518Z,99736.91
2023-02-05T04:38:13.779Z,99739.47
2023-02-05T04:40:41.418Z,99744.53
2023-02-05T04:43:08.679Z,99739.41
2023-02-05T04:45:36.662Z,99743.69
2023-02-05T04:48:06.721Z,99751.38
2023-02-05T04:50:34.836Z,99757.31
2023-02-05T04:53:03.322Z,99758.16
2023-02-05T04:55:32.253Z,99760.69
2023-02-05T04:57:59.734Z,99761.53
2023-02-05T05:00:27.737Z,99763.25
2023-02-05T05:02:55.084Z,99765.84
2023-02-05T05:05:22.926Z,99768.38
2023-02-05T05:07:50.227Z,99777.78
2023-02-05T05:10:17.890Z,99773.50
2023-02-05T05:12:45.217Z,99777.81
2023-02-05T05:15:12.923Z,99775.25
2023-02-05T05:17:40.326Z,99781.22
2023-02-05T05:20:08.654Z,99777.78
2023-02-05T05:22:35.940Z,99788.00
2023-02-05T05:25:03.549Z,99793.03
2023-02-05T05:27:30.848Z,99789.53
2023-02-05T05:29:58.474Z,99791.09
2023-02-05T05:32:25.792Z,99790.97
2023-02-05T05:34:53.400Z,99790.09
2023-02-05T05:37:20.657Z,99796.06
2023-02-05T05:40:06.563Z,99794.34
2023-02-05T05:42:52.465Z,99788.34
2023-02-05T05:45:20.103Z,99794.34
2023-02-05T05:47:47.441Z,99802.81
2023-02-05T05:50:15.431Z,99811.38
2023-02-05T05:52:42.765Z,99813.91
2023-02-05T05:55:10.541Z,99819.91
2023-02-05T05:57:37.892Z,99828.44
2023-02-05T06:00:06.691Z,99830.19
2023-02-05T06:02:39.108Z,99833.63
2023-02-05T06:05:07.336Z,99838.72
2023-02-05T06:07:34.642Z,99837.81
2023-02-05T06:10:02.368Z,99845.50
2023-02-05T06:12:29.637Z,99832.66
2023-02-05T06:14:57.238Z,99838.56
2023-02-05T06:17:24.505Z,99841.13
2023-02-05T06:19:52.083Z,99842.00
2023-02-05T06:22:19.555Z,99839.50
2023-02-05T06:24:47.205Z,99847.16
2023-02-05T06:27:14.452Z,99848.06
2023-02-05T06:29:42.005Z,99859.16
2023-02-05T06:32:09.297Z,99864.34
2023-02-05T06:34:37.011Z,99862.69
2023-02-05T06:37:04.381Z,99872.09
2023-02-05T06:39:32.046Z,99874.59
2023-02-05T06:41:59.358Z,99874.69
2023-02-05T06:44:27.062Z,99877.38
2023-02-05T06:46:54.343Z,99880.03
2023-02-05T06:49:22.118Z,99875.00
2023-02-05T06:51:49.444Z,99874.28
2023-02-05T06:54:17.390Z,99890.66
2023-02-05T06:56:44.941Z,99879.66
2023-02-05T06:59:12.519Z,99882.31
2023-02-05T07:01:39.950Z,99877.25
2023-02-05T07:04:07.655Z,99873.88
2023-02-05T07:06:35.037Z,99876.44
2023-02-05T07:09:02.810Z,99879.91
2023-02-05T07:11:30.311Z,99879.03
2023-02-05T07:14:01.155Z,99888.44
2023-02-05T07:16:30.473Z,99890.19
2023-02-05T07:18:59.025Z,99885.91
2023-02-05T07:21:26.305Z,99896.19
2023-02-05T07:23:54.048Z,99896.22
2023-02-05T07:26:21.461Z,99891.09
2023-02-05T07:28:49.126Z,99905.78
2023-02-05T07:31:19.649Z,99907.59
2023-02-05T07:33:48.550Z,99910.16
2023-02-05T07:36:18.886Z,99910.09
2023-02-05T07:38:48.079Z,99910.91
2023-02-05T07:41:17.500Z,99920.34
2023-02-05T07:43:45.441Z,99923.75
2023-02-05T07:46:15.201Z,99922.03
2023-02-05T07:48:43.265Z,99920.31
2023-02-05T07:51:18.336Z,99919.47
2023-02-05T07:53:46.627Z,99922.00
2023-02-05T07:56:15.666Z,99921.91
2023-02-05T07:58:44.087Z,99918.41
2023-02-05T08:01:11.712Z,99918.34
2023-02-05T08:03:39.541Z,99926.66
2023-02-05T08:06:11.688Z,99935.91
2023-02-05T08:08:39.254Z,99941.84
2023-02-05T08:11:08.002Z,99948.69
2023-02-05T08:13:35.555Z,99936.88
2023-02-05T08:16:09.470Z,99946.66
2023-02-05T08:18:37.196Z,99950.84
2023-02-05T08:21:05.177Z,99957.53
2023-02-05T08:23:33.394Z,99966.44
2023-02-05T08:26:01.217Z,99971.94
2023-02-05T08:28:29.349Z,99967.75
2023-02-05T08:30:57.042Z,99965.38
2023-02-05T08:33:25.197Z,99968.34
2023-02-05T08:35:52.639Z,99961.63
2023-02-05T08:38:20.316Z,99964.56
2023-02-05T08:40:47.593Z,99966.94
2023-02-05T08:43:15.266Z,99970.44
2023-02-05T08:45:48.140Z,99968.69
2023-02-05T08:48:15.957Z,99975.78
2023-02-05T08:50:47.385Z,99975.25
2023-02-05T08:53:15.029Z,99980.59
2023-02-05T08:55:42.790Z,99984.09
2023-02-05T08:58:10.452Z,99980.00
2023-02-05T09:00:40.164Z,99983.59
2023-02-05T09:03:08.886Z,99975.94
2023-02-05T09:05:36.388Z,99980.25
2023-02-05T09:08:04.119Z,99978.59
2023-02-05T09:10:31.696Z,99983.75
2023-02-05T09:12:59.274Z,99991.47
2023-02-05T09:15:26.823Z,99985.44
2023-02-05T09:17:54.422Z,99986.28
2023-02-05T09:20:21.738Z,99992.25
2023-02-05T09:22:50.490Z,99993.09
2023-02-05T09:25:17.866Z,99999.16
2023-02-05T09:27:45.535Z,99996.56
2023-02-05T09:30:13.644Z,100004.34
2023-02-05T09:32:41.272Z,100006.88
2023-02-05T09:35:08.820Z,100006.91
2023-02-05T09:37:36.408Z,100007.78
2023-02-05T09:40:21.240Z,100016.44
2023-02-05T09:43:34.769Z,100011.34
2023-02-05T09:47:08.004Z,100011.31
2023-02-05T09:49:44.965Z,100019.88
2023-02-05T09:52:29.369Z,100012.16
2023-02-05T09:55:05.077Z,100013.00
2023-02-05T09:57:41.560Z,100011.31
2023-02-05T10:00:27.667Z,100011.31
2023-02-05T10:03:06.995Z,100005.34
2023-02-05T10:06:17.550Z,99997.63
2023-02-05T10:08:45.376Z,99989.88
2023-02-05T10:12:00.375Z,99987.16
2023-02-05T10:14:46.498Z,99994.75
2023-02-05T10:17:46.753Z,99997.97
2023-02-05T10:20:31.853Z,100001.88
2023-02-05T10:23:25.262Z,100000.31
2023-02-05T10:26:14.495Z,99996.19
2023-02-05T10:29:22.174Z,99996.84
2023-02-05T10:32:25.669Z,99995.44
2023-02-05T10:35:12.997Z,99992.41
2023-02-05T10:37:58.250Z,99983.72
2023-02-05T10:40:32.776Z,99976.41
2023-02-05T10:43:53.561Z,99974.91
2023-02-05T10:46:21.447Z,99974.88
2023-02-05T10:49:38.429Z,99976.44
2023-02-05T10:52:11.884Z,99976.59
2023-02-05T10:54:41.476Z,99971.06
2023-02-05T10:57:19.708Z,99976.13
2023-02-05T11:00:14.693Z,99977.25
2023-02-05T11:02:50.832Z,99973.84
2023-02-05T11:05:37.343Z,99962.88
2023-02-05T11:08:25.696Z,99953.84
2023-02-05T11:10:53.995Z,99930.44
2023-02-05T11:13:22.875Z,99919.28
2023-02-05T11:16:21.802Z,99926.16
2023-02-05T11:19:00.577Z,99935.78
2023-02-05T11:21:47.731Z,99942.56
2023-02-05T11:24:28.851Z,99942.28
2023-02-05T11:27:32.820Z,99939.00
2023-02-05T11:30:58.780Z,99949.22
2023-02-05T11:33:23.271Z,99942.38
2023-02-05T11:35:53.764Z,99936.88
2023-02-05T11:38:48.093Z,99941.97
2023-02-05T11:41:30.980Z,99932.94
2023-02-05T11:44:01.974Z,99928.88
2023-02-05T11:46:44.558Z,99928.94
2023-02-05T11:49:23.040Z,99931.97
2023-02-05T11:51:56.520Z,99929.78
2023-02-05T11:54:34.554Z,99930.22
2023-02-05T11:57:20.196Z,99917.44
2023-02-05T12:00:08.540Z,99919.44
2023-02-05T12:02:39.417Z,99929.19
2023-02-05T12:05:26.877Z,99925.84
2023-02-05T12:08:11.173Z,99926.59
2023-02-05T12:11:30.557Z,99925.78
2023-02-05T12:14:20.687Z,99920.69
2023-02-05T12:17:39.960Z,99922.41
2023-02-05T12:20:38.922Z,99923.91
2023-02-05T12:23:33.531Z,99917.06
2023-02-05T12:26:37.249Z,99923.78
2023-02-05T12:29:45.662Z,99940.22
2023-02-05T12:32:31.752Z,99936.28
2023-02-05T12:35:33.224Z,99933.13
2023-02-05T12:38:39.427Z,99932.56
2023-02-05T12:41:37.676Z,99933.88
2023-02-05T12:44:57.628Z,99927.94
2023-02-05T12:47:53.188Z,99930.53
2023-02-05T12:50:35.679Z,99934.00
2023-02-05T12:53:46.839Z,99925.34
2023-02-05T12:56:48.092Z,99929.56
2023-02-05T12:59:30.992Z,99931.09
2023-02-05T13:02:15.247Z,99929.78
2023-02-05T13:05:01.128Z,99933.69
2023-02-05T13:07:45.589Z,99927.44
2023-02-05T13:10:28.424Z,99928.91
2023-02-05T13:13:05.628Z,99922.00
2023-02-05T13:15:49.356Z,99922.03
2023-02-05T13:18:27.781Z,99929.47
2023-02-05T13:21:49.168Z,99921.78
2023-02-05T13:25:00.781Z,99916.63
2023-02-05T13:27:59.201Z,99918.50
2023-02-05T13:30:37.115Z,99920.97
2023-02-05T13:33:08.078Z,99917.53
2023-02-05T13:35:50.414Z,99912.84
2023-02-05T13:38:41.192Z,99920.41
2023-02-05T13:41:27.100Z,99928.13
2023-02-05T13:44:06.520Z,99928.03
2023-02-05T13:46:40.204Z,99926.13
2023-02-05T13:49:37.238Z,99923.88
2023-02-05T13:52:27.414Z,99931.34
2023-02-05T13:55:13.744Z,99925.84
2023-02-05T13:58:22.372Z,99916.78
2023-02-05T14:00:58.443Z,99911.69
2023-02-05T14:03:35.230Z,99915.72
2023-02-05T14:06:39.524Z,99914.66
2023-02-05T14:09:33.997Z,99901.97
2023-02-05T14:12:06.529Z,99892.53
2023-02-05T14:14:37.484Z,99891.44
2023-02-05T14:17:27.847Z,99900.63
2023-02-05T14:20:01.249Z,99893.97
2023-02-05T14:22:44.399Z,99905.84
2023-02-05T14:25:38.203Z,99905.81
2023-02-05T14:28:20.604Z,99904.38
2023-02-05T14:30:59.134Z,99907.75
2023-02-05T14:33:42.371Z,99902.78
2023-02-05T14:36:19.927Z,99903.22
2023-02-05T14:38:57.159Z,99903.75
2023-02-05T14:41:42.031Z,99901.41
2023-02-05T14:44:12.053Z,99900.84
2023-02-05T14:46:52.676Z,99901.19
2023-02-05T14:49:39.585Z,99921.53
2023-02-05T14:52:27.411Z,99928.50
2023-02-05T14:55:18.553Z,99910.56
2023-02-05T14:58:24.347Z,99923.16
2023-02-05T15:00:53.193Z,99915.97
2023-02-05T15:03:38.567Z,99919.25
2023-02-05T15:06:15.388Z,99918.41
2023-02-05T15:08:52.364Z,99916.69
2023-02-05T15:11:50.809Z,99918.50
2023-02-05T15:14:35.381Z,99923.13
2023-02-05T15:17:05.802Z,99932.00
2023-02-05T15:19:54.487Z,99925.50
2023-02-05T15:22:44.322Z,99928.41
2023-02-05T15:25:26.243Z,99921.84
2023-02-05T15:28:04.359Z,99929.88
2023-02-05T15:31:22.464Z,99929.28
2023-02-05T15:33:59.885Z,99928.69
2023-02-05T15:36:43.223Z,99928.03
2023-02-05T15:39:35.620Z,99931.69
2023-02-05T15:42:06.842Z,99927.41
2023-02-05T15:44:36.067Z,99938.72
2023-02-05T15:47:22.098Z,99935.44
2023-02-05T15:50:00.909Z,99940.59
2023-02-05T15:52:32.768Z,99946.66
2023-02-05T15:55:16.997Z,99950.13
2023-02-05T15:57:45.536Z,99948.50
2023-02-05T16:00:29.487Z,99953.69
2023-02-05T16:03:02.653Z,99951.19
2023-02-05T16:05:31.972Z,99953.78
2023-02-05T16:08:02.045Z,99948.59
2023-02-05T16:10:35.046Z,99949.47
2023-02-05T16:13:23.618Z,99946.84
2023-02-05T16:16:15.344Z,99943.41
2023-02-05T16:18:57.709Z,99943.41
2023-02-05T16:21:45.740Z,99946.00
2023-02-05T16:24:46.534Z,99958.06
2023-02-05T16:27:43.345Z,99953.78
2023-02-05T16:30:27.822Z,99958.06
2023-02-05T16:32:58.738Z,99958.13
2023-02-05T16:35:39.505Z,99958.09
2023-02-05T16:38:15.410Z,99970.13
2023-02-05T16:40:48.826Z,99969.28
2023-02-05T16:43:37.384Z,99968.44
2023-02-05T16:46:07.809Z,99972.72
2023-02-05T16:48:41.822Z,99976.16
2023-02-05T16:51:27.336Z,99986.44
2023-02-05T16:53:54.634Z,99985.59
2023-02-05T16:56:27.201Z,99988.16
2023-02-05T16:59:00.671Z,100000.19
2023-02-05T17:01:44.934Z,99997.59
2023-02-05T17:04:34.935Z,99998.47
2023-02-05T17:07:07.141Z,99995.88
2023-02-05T17:09:39.253Z,99990.75
2023-02-05T17:12:38.506Z,99997.59
2023-02-05T17:15:37.076Z,99989.88
2023-02-05T17:18:30.180Z,99991.59
2023-02-05T17:21:22.837Z,99996.75
2023-02-05T17:23:52.762Z,99990.72
2023-02-05T17:26:21.147Z,99989.03
2023-02-05T17:29:02.953Z,99987.31
2023-02-05T17:31:35.473Z,99987.31
2023-02-05T17:34:03.824Z,99992.47
2023-02-05T17:36:31.125Z,99991.59
2023-02-05T17:38:58.945Z,100007.91
2023-02-05T17:41:56.017Z,100001.03
2023-02-05T17:44:23.627Z,100001.88
2023-02-05T17:46:51.070Z,100001.88
2023-02-05T17:49:18.661Z,99996.75
2023-02-05T17:51:46.268Z,100000.16
2023-02-05T17:54:18.333Z,99999.31
2023-02-05T17:56:48.346Z,100000.16
2023-02-05T17:59:22.462Z,99994.13
2023-02-05T18:01:51.881Z,100007.00
2023-02-05T18:04:19.901Z,100006.13
2023-02-05T18:06:49.899Z,100013.84
2023-02-05T18:09:18.853Z,100013.00
2023-02-05T18:11:46.167Z,100021.53
2023-02-05T18:14:13.934Z,100018.13
2023-02-05T18:16:41.353Z,100019.84
2023-02-05T18:19:09.210Z,100026.72
2023-02-05T18:21:36.730Z,100026.72
2023-02-05T18:24:04.635Z,100030.97
2023-02-05T18:26:32.389Z,100029.25
2023-02-05T18:29:00.025Z,100036.09
2023-02-05T18:31:27.496Z,100047.25
2023-02-05T18:33:55.236Z,100033.50
2023-02-05T18:36:23.152Z,100034.38
2023-02-05T18:38:50.799Z,100031.81
2023-02-05T18:41:25.947Z,100025.81
2023-02-05T18:43:55.772Z,100026.72
2023-02-05T18:46:24.331Z,100033.53
2023-02-05T18:48:52.817Z,100030.09
2023-02-05T18:51:23.214Z,100027.53
2023-02-05T18:53:51.012Z,100042.09
2023-02-05T18:56:26.216Z,100038.63
2023-02-05T18:59:02.532Z,100033.47
2023-02-05T19:01:31.912Z,100034.34
2023-02-05T19:04:10.243Z,100045.47
2023-02-05T19:06:41.735Z,100045.47
2023-02-05T19:09:10.466Z,100042.00
2023-02-05T19:11:41.513Z,100041.13
2023-02-05T19:14:13.222Z,100035.16
2023-02-05T19:16:42.161Z,100042.00
2023-02-05T19:19:14.435Z,100054.84
2023-02-05T19:21:44.080Z,100052.28
2023-02-05T19:24:14.316Z,100044.56
2023-02-05T19:26:45.428Z,100039.44
2023-02-05T19:29:17.004Z,100035.16
2023-02-05T19:31:46.261Z,100036.00
2023-02-05T19:34:15.558Z,100040.25
2023-02-05T19:36:43.871Z,100044.53
2023-02-05T19:39:14.538Z,100041.88
2023-02-05T19:41:45.728Z,100041.88
2023-02-05T19:44:13.675Z,100047.84
2023-02-05T19:46:46.778Z,100044.31
2023-02-05T19:49:19.143Z,100051.22
2023-02-05T19:51:49.552Z,100046.94
2023-02-05T19:54:21.183Z,100048.59
2023-02-05T19:56:49.429Z,100049.50
2023-02-05T19:59:17.435Z,100051.25
2023-02-05T20:01:46.050Z,100038.41
2023-02-05T20:04:18.239Z,100034.94
2023-02-05T20:06:47.360Z,100044.38
2023-02-05T20:09:17.439Z,100046.13
2023-02-05T20:11:49.219Z,100052.13
2023-02-05T20:14:18.404Z,100046.97
2023-02-05T20:16:46.344Z,100051.31
2023-02-05T20:19:16.918Z,100057.25
2023-02-05T20:21:44.893Z,100055.59
2023-02-05T20:24:13.667Z,100061.59
2023-02-05T20:26:41.277Z,100066.75
2023-02-05T20:29:29.164Z,100065.09
2023-02-05T20:31:58.396Z,100069.34
2023-02-05T20:34:30.927Z,100065.91
2023-02-05T20:37:04.310Z,100078.75
2023-02-05T20:39:35.301Z,100075.31
2023-02-05T20:42:03.647Z,100083.88
2023-02-05T20:44:36.276Z,100084.69
2023-02-05T20:47:11.052Z,100082.97
2023-02-05T20:49:41.509Z,100088.97
2023-02-05T20:52:10.533Z,100088.91
2023-02-05T20:54:38.277Z,100088.00
2023-02-05T20:57:05.749Z,100088.88
2023-02-05T20:59:34.511Z,100093.16
2023-02-05T21:02:02.899Z,100094.00
2023-02-05T21:04:31.034Z,100102.50
2023-02-05T21:06:58.786Z,100113.63
2023-02-05T21:09:26.582Z,100112.75
2023-02-05T21:11:55.684Z,100108.44
2023-02-05T21:14:24.190Z,100107.56
2023-02-05T21:16:52.072Z,100098.94
2023-02-05T21:19:19.871Z,100098.06
2023-02-05T21:21:47.266Z,100106.56
2023-02-05T21:24:16.434Z,100109.06
2023-02-05T21:26:49.439Z,100111.59
2023-02-05T21:29:20.852Z,100124.34
2023-02-05T21:31:54.264Z,100113.94
2023-02-05T21:34:26.434Z,100125.81
2023-02-05T21:36:55.230Z,100140.25
2023-02-05T21:39:24.188Z,100141.09
2023-02-05T21:41:53.417Z,100144.50
2023-02-05T21:44:21.360Z,100146.16
2023-02-05T21:46:48.728Z,100151.34
2023-02-05T21:49:16.381Z,100157.34
2023-02-05T21:51:43.696Z,100160.78
2023-02-05T21:54:12.241Z,100151.34
2023-02-05T21:56:42.787Z,100161.59
2023-02-05T21:59:12.867Z,100154.75
2023-02-05T22:01:41.799Z,100158.19
2023-02-05T22:04:15.094Z,100158.13
2023-02-05T22:06:43.117Z,100162.47
2023-02-05T22:09:14.322Z,100165.09
2023-02-05T22:11:42.474Z,100174.56
2023-02-05T22:14:11.201Z,100176.28
2023-02-05T22:16:39.258Z,100178.84
2023-02-05T22:19:07.694Z,100174.50
2023-02-05T22:21:38.915Z,100167.63
2023-02-05T22:24:08.498Z,100170.97
2023-02-05T22:26:39.146Z,100173.56
2023-02-05T22:29:11.299Z,100171.91
2023-02-05T22:31:38.674Z,100171.09
2023-02-05T22:34:06.277Z,100171.09
2023-02-05T22:36:35.410Z,100185.72
2023-02-05T22:39:05.782Z,100177.09
2023-02-05T22:41:38.950Z,100177.88
2023-02-05T22:44:08.925Z,100180.38
2023-02-05T22:46:41.945Z,100179.47
2023-02-05T22:49:15.405Z,100185.44
2023-02-05T22:51:43.908Z,100193.00
2023-02-05T22:54:13.822Z,100187.88
2023-02-05T22:56:41.270Z,100192.16
2023-02-05T22:59:09.039Z,100190.44
2023-02-05T23:01:39.265Z,100190.34
2023-02-05T23:04:09.458Z,100192.00
2023-02-05T23:06:43.151Z,100197.06
2023-02-05T23:09:16.006Z,100197.03
2023-02-05T23:11:44.376Z,100202.03
2023-02-05T23:14:14.996Z,100199.47
2023-02-05T23:16:44.806Z,100206.22
2023-02-05T23:19:18.511Z,100213.03
2023-02-05T23:21:47.222Z,100200.19
2023-02-05T23:24:15.877Z,100213.75
2023-02-05T23:26:47.113Z,100205.94
2023-02-05T23:29:16.748Z,100195.44
2023-02-05T23:31:44.642Z,100192.81
2023-02-05T23:34:13.431Z,100194.56
2023-02-05T23:36:41.219Z,100196.28
2023-02-05T23:39:09.249Z,100198.00
2023-02-05T23:41:36.898Z,100201.38
2023-02-05T23:44:18.307Z,100194.47
2023-02-05T23:46:48.137Z,100197.00
2023-02-05T23:49:17.408Z,100195.28
2023-02-05T23:51:44.688Z,100196.91
2023-02-05T23:54:12.722Z,100192.59
2023-02-05T23:56:41.053Z,100195.16
2023-02-05T23:59:11.010Z,100185.72
